createdAt,value
2022-08-05T00:01:36.287Z,5.40
2022-08-05T00:04:18.243Z,5.97
2022-08-05T00:06:51.753Z,6.07
2022-08-05T00:09:21.588Z,6.35
2022-08-05T00:11:55.755Z,6.55
2022-08-05T00:14:31.488Z,6.18
2022-08-05T00:17:01.646Z,6.88
2022-08-05T00:19:33.097Z,6.53
2022-08-05T00:22:06.488Z,5.88
2022-08-05T00:24:35.978Z,5.85
2022-08-05T00:27:14.052Z,6.22
2022-08-05T00:29:46.301Z,6.22
2022-08-05T00:32:15.912Z,6.13
2022-08-05T00:35:04.726Z,6.25
2022-08-05T00:37:52.824Z,5.93
2022-08-05T00:40:26.979Z,5.40
2022-08-05T00:42:58.497Z,5.53
2022-08-05T00:45:38.675Z,5.67
2022-08-05T00:48:12.908Z,6.03
2022-08-05T00:50:44.151Z,6.40
2022-08-05T00:54:01.242Z,6.03
2022-08-05T00:56:08.826Z,5.95
2022-08-05T00:58:38.864Z,6.97
2022-08-05T01:01:12.457Z,6.30
2022-08-05T01:03:42.372Z,7.00
2022-08-05T01:06:15.347Z,6.07
2022-08-05T01:08:47.592Z,6.57
2022-08-05T01:11:22.550Z,6.85
2022-08-05T01:14:00.262Z,6.20
2022-08-05T01:16:32.461Z,6.50
2022-08-05T01:19:03.760Z,6.85
2022-08-05T01:21:45.066Z,7.35
2022-08-05T01:24:30.157Z,7.07
2022-08-05T01:27:19.200Z,6.95
2022-08-05T01:29:52.772Z,5.93
2022-08-05T01:32:27.701Z,6.38
2022-08-05T01:34:59.859Z,6.43
2022-08-05T01:37:33.756Z,6.28
2022-08-05T01:40:07.344Z,5.32
2022-08-05T01:42:37.216Z,5.40
2022-08-05T01:45:10.808Z,5.00
2022-08-05T01:47:43.425Z,4.80
2022-08-05T01:50:15.882Z,4.90
2022-08-05T01:52:50.010Z,4.82
2022-08-05T01:55:20.521Z,4.50
2022-08-05T01:58:29.708Z,5.18
2022-08-05T02:00:44.401Z,5.13
2022-08-05T02:03:28.983Z,5.43
2022-08-05T02:06:03.371Z,5.40
2022-08-05T02:08:54.888Z,5.57
2022-08-05T02:11:33.349Z,6.68
2022-08-05T02:14:04.875Z,7.82
2022-08-05T02:16:39.474Z,7.70
2022-08-05T02:19:11.369Z,7.22
2022-08-05T02:21:46.884Z,6.90
2022-08-05T02:24:23.049Z,6.30
2022-08-05T02:26:55.666Z,5.50
2022-08-05T02:29:58.413Z,5.45
2022-08-05T02:32:24.136Z,4.70
2022-08-05T02:34:59.492Z,4.82
2022-08-05T02:37:32.019Z,4.20
2022-08-05T02:40:01.562Z,4.83
2022-08-05T02:42:36.000Z,4.70
2022-08-05T02:45:05.998Z,5.18
2022-08-05T02:48:06.729Z,5.20
2022-08-05T02:50:28.946Z,5.38
2022-08-05T02:52:58.406Z,5.80
2022-08-05T02:55:51.983Z,4.30
2022-08-05T02:58:17.837Z,4.07
2022-08-05T03:00:49.996Z,4.20
2022-08-05T03:03:23.669Z,4.22
2022-08-05T03:06:54.425Z,4.45
2022-08-05T03:08:43.248Z,4.15
2022-08-05T03:11:56.477Z,3.97
2022-08-05T03:14:13.439Z,3.67
2022-08-05T03:16:43.228Z,3.40
2022-08-05T03:19:20.374Z,3.28
2022-08-05T03:22:05.037Z,3.47
2022-08-05T03:24:46.994Z,3.38
2022-08-05T03:27:17.222Z,3.45
2022-08-05T03:30:08.202Z,3.20
2022-08-05T03:32:36.455Z,3.58
2022-08-05T03:35:09.635Z,3.50
2022-08-05T03:37:46.262Z,3.47
2022-08-05T03:40:24.453Z,3.80
2022-08-05T03:43:58.804Z,3.75
2022-08-05T03:45:55.319Z,3.97
2022-08-05T03:48:29.027Z,4.03
2022-08-05T03:52:34.957Z,3.95
2022-08-05T03:56:01.135Z,3.85
2022-08-05T03:56:48.228Z,4.60
2022-08-05T03:59:20.661Z,4.90
2022-08-05T04:01:52.062Z,4.70
2022-08-05T04:04:22.267Z,4.65
2022-08-05T04:06:58.647Z,4.50
2022-08-05T04:09:28.082Z,4.80
2022-08-05T04:11:57.975Z,4.93
2022-08-05T04:14:29.903Z,4.40
2022-08-05T04:17:02.847Z,4.03
2022-08-05T04:19:32.561Z,3.88
2022-08-05T04:22:09.849Z,3.75
2022-08-05T04:24:44.264Z,3.40
2022-08-05T04:27:15.301Z,3.85
2022-08-05T04:29:45.028Z,3.83
2022-08-05T04:32:14.699Z,3.95
2022-08-05T04:34:49.514Z,3.97
2022-08-05T04:38:02.055Z,4.15
2022-08-05T04:40:19.782Z,4.43
2022-08-05T04:42:49.334Z,4.80
2022-08-05T04:45:22.978Z,4.13
2022-08-05T04:48:10.334Z,4.20
2022-08-05T04:51:03.698Z,3.90
2022-08-05T04:53:41.079Z,4.20
2022-08-05T04:56:33.050Z,3.60
2022-08-05T04:59:00.876Z,3.80
2022-08-05T05:02:05.709Z,3.67
2022-08-05T05:04:38.313Z,3.60
2022-08-05T05:07:09.404Z,3.45
2022-08-05T05:09:41.637Z,3.30
2022-08-05T05:12:12.071Z,3.30
2022-08-05T05:14:49.177Z,3.75
2022-08-05T05:17:24.171Z,3.45
2022-08-05T05:19:56.765Z,3.38
2022-08-05T05:22:26.955Z,3.83
2022-08-05T05:25:01.154Z,3.80
2022-08-05T05:27:45.767Z,4.00
2022-08-05T05:30:29.394Z,4.20
2022-08-05T05:33:03.849Z,4.00
2022-08-05T05:35:43.570Z,4.20
2022-08-05T05:38:14.111Z,4.25
2022-08-05T05:43:27.591Z,4.25
2022-08-05T05:46:15.793Z,4.75
2022-08-05T05:48:47.885Z,3.90
2022-08-05T05:51:22.171Z,4.32
2022-08-05T05:53:57.554Z,3.75
2022-08-05T05:56:34.428Z,4.18
2022-08-05T05:59:06.506Z,4.50
2022-08-05T06:01:38.701Z,4.22
2022-08-05T06:04:11.930Z,4.40
2022-08-05T06:06:42.634Z,4.03
2022-08-05T06:09:16.974Z,4.55
2022-08-05T06:12:01.732Z,4.05
2022-08-05T06:14:32.057Z,4.20
2022-08-05T06:19:57.058Z,4.13
2022-08-05T06:22:30.067Z,4.20
2022-08-05T06:24:59.577Z,4.53
2022-08-05T06:28:09.409Z,3.83
2022-08-05T06:30:21.501Z,3.47
2022-08-05T06:32:51.031Z,4.00
2022-08-05T06:36:07.052Z,4.07
2022-08-05T06:38:11.958Z,3.90
2022-08-05T06:40:42.084Z,4.10
2022-08-05T06:43:57.661Z,3.80
2022-08-05T06:46:07.342Z,3.95
2022-08-05T06:48:56.298Z,3.65
2022-08-05T06:51:30.077Z,3.50
2022-08-05T06:54:01.883Z,3.60
2022-08-05T06:56:34.318Z,3.30
2022-08-05T06:59:08.498Z,3.50
2022-08-05T07:01:41.529Z,3.70
2022-08-05T07:04:13.982Z,3.65
2022-08-05T07:06:43.672Z,3.50
2022-08-05T07:09:13.901Z,3.92
2022-08-05T07:11:49.403Z,3.50
2022-08-05T07:14:34.280Z,3.40
2022-08-05T07:17:59.467Z,3.20
2022-08-05T07:22:44.129Z,3.03
2022-08-05T07:25:53.975Z,3.00
2022-08-05T07:28:08.227Z,3.15
2022-08-05T07:30:41.999Z,3.05
2022-08-05T07:33:16.838Z,2.72
2022-08-05T07:36:04.526Z,3.25
2022-08-05T07:38:43.600Z,3.00
2022-08-05T07:42:09.013Z,3.03
2022-08-05T07:44:04.404Z,3.20
2022-08-05T07:46:36.452Z,3.30
2022-08-05T07:49:07.962Z,3.25
2022-08-05T07:51:53.777Z,2.85
2022-08-05T07:54:31.021Z,3.25
2022-08-05T07:57:22.694Z,3.08
2022-08-05T07:59:53.497Z,3.38
2022-08-05T08:02:31.293Z,3.35
2022-08-05T08:05:18.837Z,3.33
2022-08-05T08:08:00.129Z,3.17
2022-08-05T08:10:30.457Z,3.10
2022-08-05T08:13:00.739Z,3.17
2022-08-05T08:16:33.433Z,2.95
2022-08-05T08:18:23.314Z,3.17
2022-08-05T08:21:02.713Z,3.28
2022-08-05T08:24:01.327Z,2.85
2022-08-05T08:26:26.920Z,3.03
2022-08-05T08:29:09.767Z,3.00
2022-08-05T08:31:48.850Z,2.90
2022-08-05T08:34:30.147Z,3.08
2022-08-05T08:37:05.218Z,3.05
2022-08-05T08:39:37.555Z,2.55
2022-08-05T08:42:32.362Z,3.00
2022-08-05T08:45:20.620Z,2.55
2022-08-05T08:48:11.758Z,2.60
2022-08-05T08:51:03.121Z,2.67
2022-08-05T08:53:30.678Z,2.53
2022-08-05T08:56:04.146Z,2.65
2022-08-05T08:58:44.036Z,2.60
2022-08-05T09:01:18.531Z,2.53
2022-08-05T09:06:28.563Z,2.78
2022-08-05T09:08:59.426Z,2.60
2022-08-05T09:11:53.108Z,2.78
2022-08-05T09:14:56.383Z,2.72
2022-08-05T09:17:09.452Z,2.97
2022-08-05T09:20:01.605Z,2.72
2022-08-05T09:22:33.122Z,2.90
2022-08-05T09:25:23.709Z,2.88
2022-08-05T09:28:05.054Z,2.70
2022-08-05T09:30:36.292Z,2.75
2022-08-05T09:33:08.465Z,2.85
2022-08-05T09:35:56.402Z,2.85
2022-08-05T09:38:29.594Z,2.70
2022-08-05T09:41:05.252Z,3.10
2022-08-05T09:43:40.635Z,3.03
2022-08-05T09:46:28.015Z,3.00
2022-08-05T09:49:07.234Z,2.88
2022-08-05T09:51:49.632Z,2.80
2022-08-05T09:54:28.768Z,3.20
2022-08-05T09:57:01.758Z,2.95
2022-08-05T09:59:36.911Z,3.10
2022-08-05T10:02:06.910Z,2.80
2022-08-05T10:04:39.748Z,2.97
2022-08-05T10:07:20.188Z,3.20
2022-08-05T10:10:14.639Z,2.75
2022-08-05T10:12:50.469Z,2.88
2022-08-05T10:15:25.815Z,2.92
2022-08-05T10:18:14.072Z,2.95
2022-08-05T10:20:47.954Z,2.97
2022-08-05T10:23:34.485Z,2.78
2022-08-05T10:26:13.830Z,2.80
2022-08-05T10:28:44.859Z,3.10
2022-08-05T10:32:50.668Z,3.30
2022-08-05T10:34:07.163Z,3.03
2022-08-05T10:36:37.988Z,3.22
2022-08-05T10:39:15.277Z,3.38
2022-08-05T10:42:01.072Z,3.20
2022-08-05T10:44:30.808Z,3.60
2022-08-05T10:47:00.382Z,3.30
2022-08-05T10:49:33.276Z,3.40
2022-08-05T10:52:05.270Z,3.70
2022-08-05T10:54:56.795Z,3.40
2022-08-05T10:57:32.089Z,3.30
2022-08-05T11:00:24.651Z,3.17
2022-08-05T11:03:25.702Z,3.65
2022-08-05T11:06:16.074Z,3.47
2022-08-05T11:09:17.030Z,3.40
2022-08-05T11:11:53.520Z,3.33
2022-08-05T11:17:59.038Z,3.45
2022-08-05T11:20:44.011Z,3.33
2022-08-05T11:24:02.290Z,3.70
2022-08-05T11:26:29.040Z,3.80
2022-08-05T11:29:13.148Z,3.83
2022-08-05T11:31:58.242Z,4.10
2022-08-05T11:34:38.959Z,3.55
2022-08-05T11:38:29.279Z,3.53
2022-08-05T11:40:02.971Z,3.50
2022-08-05T11:42:40.350Z,3.90
2022-08-05T11:45:23.083Z,3.72
2022-08-05T11:48:02.711Z,3.88
2022-08-05T11:50:32.910Z,3.67
2022-08-05T11:53:09.811Z,3.60
2022-08-05T11:55:39.533Z,3.65
2022-08-05T11:58:11.959Z,3.60
2022-08-05T12:00:47.011Z,3.90
2022-08-05T12:03:31.659Z,4.57
2022-08-05T12:06:03.301Z,4.47
2022-08-05T12:08:36.378Z,4.78
2022-08-05T12:11:09.098Z,4.30
2022-08-05T12:13:49.240Z,4.00
2022-08-05T12:18:56.599Z,4.35
2022-08-05T12:21:30.315Z,4.30
2022-08-05T12:24:04.827Z,4.10
2022-08-05T12:26:35.633Z,3.75
2022-08-05T12:31:50.237Z,4.28
2022-08-05T12:34:26.799Z,3.85
2022-08-05T12:36:56.556Z,4.35
2022-08-05T12:39:34.390Z,4.20
2022-08-05T12:42:14.641Z,4.13
2022-08-05T12:44:44.964Z,4.25
2022-08-05T12:47:17.854Z,4.63
2022-08-05T12:50:03.536Z,4.30
2022-08-05T12:52:39.507Z,4.45
2022-08-05T12:55:25.372Z,4.32
2022-08-05T12:58:50.632Z,4.95
2022-08-05T13:02:00.690Z,5.10
2022-08-05T13:03:43.227Z,5.90
2022-08-05T13:06:16.508Z,5.80
2022-08-05T13:08:50.719Z,6.10
2022-08-05T13:11:25.553Z,6.85
2022-08-05T13:14:20.455Z,8.00
2022-08-05T13:17:06.191Z,8.45
2022-08-05T13:19:52.476Z,8.68
2022-08-05T13:22:28.504Z,8.90
2022-08-05T13:25:00.889Z,8.85
2022-08-05T13:27:38.075Z,9.40
2022-08-05T13:30:32.978Z,9.43
2022-08-05T13:33:01.550Z,9.43
2022-08-05T13:35:47.300Z,10.85
2022-08-05T13:38:31.009Z,11.65
2022-08-05T13:41:05.905Z,11.32
2022-08-05T13:43:44.271Z,12.27
2022-08-05T13:46:50.544Z,14.38
2022-08-05T13:49:11.759Z,13.68
2022-08-05T13:51:46.296Z,14.00
2022-08-05T13:54:17.021Z,14.77
2022-08-05T13:56:51.779Z,12.65
2022-08-05T13:59:24.534Z,14.50
2022-08-05T14:01:57.737Z,13.27
2022-08-05T14:04:41.552Z,12.80
2022-08-05T14:07:25.742Z,12.55
2022-08-05T14:10:03.841Z,12.98
2022-08-05T14:12:33.470Z,12.90
2022-08-05T14:16:05.995Z,12.07
2022-08-05T14:17:52.349Z,11.93
2022-08-05T14:20:27.306Z,11.77
2022-08-05T14:22:59.615Z,12.27
2022-08-05T14:25:30.245Z,10.98
2022-08-05T14:30:30.153Z,10.45
2022-08-05T14:32:59.625Z,10.65
2022-08-05T14:35:49.955Z,11.15
2022-08-05T14:38:31.623Z,11.15
2022-08-05T14:41:06.966Z,10.35
2022-08-05T14:43:58.912Z,9.77
2022-08-05T14:46:28.710Z,9.73
2022-08-05T14:48:59.558Z,8.18
2022-08-05T14:51:33.252Z,7.70
2022-08-05T14:54:08.543Z,7.55
2022-08-05T14:56:54.931Z,6.75
2022-08-05T14:59:24.460Z,6.47
2022-08-05T15:01:54.283Z,5.90
2022-08-05T15:04:24.028Z,5.47
2022-08-05T15:06:56.917Z,5.10
2022-08-05T15:09:51.411Z,4.97
2022-08-05T15:12:18.422Z,4.60
2022-08-05T15:14:49.882Z,4.00
2022-08-05T15:17:46.058Z,3.35
2022-08-05T15:20:19.103Z,3.00
2022-08-05T15:22:55.134Z,2.65
2022-08-05T15:25:40.870Z,2.67
2022-08-05T15:28:17.056Z,2.40
2022-08-05T15:30:46.790Z,2.17
2022-08-05T15:34:04.469Z,2.35
2022-08-05T15:36:17.720Z,2.30
2022-08-05T15:40:39.724Z,2.20
2022-08-05T15:41:57.570Z,2.10
2022-08-05T15:44:32.370Z,2.10
2022-08-05T15:47:04.324Z,2.00
2022-08-05T15:49:53.726Z,1.83
2022-08-05T15:52:51.978Z,1.85
2022-08-05T15:55:16.089Z,1.90
2022-08-05T15:57:48.826Z,1.90
2022-08-05T16:00:26.137Z,1.85
2022-08-05T16:03:08.970Z,1.80
2022-08-05T16:05:39.142Z,1.70
2022-08-05T16:08:11.302Z,1.80
2022-08-05T16:10:45.495Z,1.77
2022-08-05T16:13:23.278Z,1.97
2022-08-05T16:15:53.795Z,1.80
2022-08-05T16:18:27.824Z,1.63
2022-08-05T16:20:59.942Z,1.90
2022-08-05T16:23:53.999Z,1.80
2022-08-05T16:26:26.535Z,1.80
2022-08-05T16:28:59.097Z,1.83
2022-08-05T16:31:56.250Z,1.77
2022-08-05T16:34:17.996Z,1.90
2022-08-05T16:36:47.457Z,2.03
2022-08-05T16:39:18.138Z,1.63
2022-08-05T16:42:14.309Z,1.90
2022-08-05T16:44:42.287Z,1.77
2022-08-05T16:47:24.653Z,1.88
2022-08-05T16:50:03.337Z,1.83
2022-08-05T16:52:33.088Z,1.90
2022-08-05T16:55:04.337Z,1.97
2022-08-05T17:00:33.914Z,1.60
2022-08-05T17:03:04.711Z,1.85
2022-08-05T17:05:46.250Z,1.95
2022-08-05T17:08:33.439Z,1.75
2022-08-05T17:11:12.574Z,1.80
2022-08-05T17:13:46.550Z,2.08
2022-08-05T17:16:36.541Z,1.83
2022-08-05T17:19:09.605Z,1.92
2022-08-05T17:21:40.403Z,1.92
2022-08-05T17:24:30.196Z,2.00
2022-08-05T17:27:00.427Z,1.90
2022-08-05T17:29:33.607Z,1.85
2022-08-05T17:32:17.418Z,2.20
2022-08-05T17:34:48.042Z,1.80
2022-08-05T17:37:39.324Z,2.05
2022-08-05T17:40:12.365Z,2.10
2022-08-05T17:42:49.890Z,2.20
2022-08-05T17:45:22.545Z,2.03
2022-08-05T17:47:56.343Z,2.30
2022-08-05T17:50:28.204Z,2.25
2022-08-05T17:53:00.965Z,2.38
2022-08-05T17:55:37.353Z,2.20
2022-08-05T17:58:09.866Z,2.55
2022-08-05T18:00:45.489Z,2.53
2022-08-05T18:06:11.899Z,2.50
2022-08-05T18:08:46.190Z,2.30
2022-08-05T18:11:24.390Z,2.40
2022-08-05T18:14:03.696Z,2.40
2022-08-05T18:16:34.078Z,2.55
2022-08-05T18:19:07.395Z,2.53
2022-08-05T18:22:08.308Z,2.40
2022-08-05T18:24:26.849Z,2.55
2022-08-05T18:26:57.675Z,2.60
2022-08-05T18:29:40.238Z,2.60
2022-08-05T18:32:13.027Z,2.80
2022-08-05T18:34:45.262Z,2.72
2022-08-05T18:37:34.065Z,2.90
2022-08-05T18:40:57.471Z,2.78
2022-08-05T18:42:54.547Z,2.70
2022-08-05T18:45:24.808Z,2.72
2022-08-05T18:47:56.661Z,2.80
2022-08-05T18:50:42.281Z,3.00
2022-08-05T18:53:20.579Z,3.42
2022-08-05T18:55:54.506Z,2.92
2022-08-05T18:58:28.669Z,2.70
2022-08-05T19:00:58.648Z,2.70
2022-08-05T19:03:53.385Z,2.75
2022-08-05T19:06:34.372Z,2.80
2022-08-05T19:09:06.911Z,2.80
2022-08-05T19:11:59.848Z,2.90
2022-08-05T19:14:59.313Z,2.88
2022-08-05T19:17:15.584Z,2.80
2022-08-05T19:19:46.808Z,2.88
2022-08-05T19:22:22.866Z,2.65
2022-08-05T19:25:00.730Z,2.78
2022-08-05T19:27:32.051Z,2.78
2022-08-05T19:30:03.016Z,2.92
2022-08-05T19:32:33.516Z,2.70
2022-08-05T19:35:06.438Z,2.80
2022-08-05T19:38:04.565Z,2.60
2022-08-05T19:40:28.208Z,2.60
2022-08-05T19:43:04.975Z,2.80
2022-08-05T19:45:36.790Z,2.60
2022-08-05T19:48:07.236Z,2.50
2022-08-05T19:50:44.769Z,2.70
2022-08-05T19:53:16.820Z,2.73
2022-08-05T19:56:14.803Z,2.83
2022-08-05T19:58:56.153Z,3.05
2022-08-05T20:01:28.205Z,2.88
2022-08-05T20:03:58.095Z,2.78
2022-08-05T20:06:29.183Z,2.85
2022-08-05T20:09:06.086Z,2.83
2022-08-05T20:11:48.123Z,2.95
2022-08-05T20:14:26.600Z,2.50
2022-08-05T20:16:59.159Z,2.50
2022-08-05T20:19:36.293Z,3.00
2022-08-05T20:22:10.637Z,2.80
2022-08-05T20:24:43.476Z,2.80
2022-08-05T20:27:13.266Z,2.90
2022-08-05T20:29:52.194Z,2.70
2022-08-05T20:32:27.515Z,2.85
2022-08-05T20:34:57.225Z,2.90
2022-08-05T20:38:05.499Z,2.70
2022-08-05T20:40:19.276Z,2.70
2022-08-05T20:42:49.959Z,2.60
2022-08-05T20:45:19.423Z,2.70
2022-08-05T20:47:50.515Z,2.78
2022-08-05T20:52:52.555Z,2.47
2022-08-05T20:55:56.207Z,2.50
2022-08-05T20:58:15.365Z,2.50
2022-08-05T21:00:54.236Z,2.50
2022-08-05T21:03:24.329Z,2.20
2022-08-05T21:05:55.550Z,2.38
2022-08-05T21:08:32.864Z,2.33
2022-08-05T21:11:15.283Z,2.17
2022-08-05T21:14:03.308Z,2.15
2022-08-05T21:16:35.412Z,2.30
2022-08-05T21:19:05.334Z,2.10
2022-08-05T21:21:39.805Z,2.03
2022-08-05T21:24:20.098Z,2.10
2022-08-05T21:26:57.967Z,2.30
2022-08-05T21:29:31.732Z,2.10
2022-08-05T21:32:02.298Z,1.90
2022-08-05T21:34:32.835Z,1.80
2022-08-05T21:37:02.642Z,1.80
2022-08-05T21:39:34.574Z,1.80
2022-08-05T21:42:07.286Z,1.90
2022-08-05T21:44:56.776Z,1.90
2022-08-05T21:47:54.890Z,1.92
2022-08-05T21:50:16.028Z,2.00
2022-08-05T21:52:47.100Z,2.00
2022-08-05T21:55:17.257Z,2.13
2022-08-05T21:57:49.585Z,1.90
2022-08-05T22:00:19.382Z,2.13
2022-08-05T22:02:48.833Z,2.20
2022-08-05T22:05:18.310Z,2.15
2022-08-05T22:07:58.682Z,2.00
2022-08-05T22:10:31.817Z,1.90
2022-08-05T22:13:09.348Z,1.80
2022-08-05T22:16:01.171Z,1.75
2022-08-05T22:18:34.293Z,1.90
2022-08-05T22:21:04.162Z,1.90
2022-08-05T22:24:01.242Z,1.90
2022-08-05T22:26:49.929Z,1.88
2022-08-05T22:29:26.859Z,2.25
2022-08-05T22:32:02.738Z,1.85
2022-08-05T22:34:32.985Z,1.90
2022-08-05T22:37:03.694Z,1.90
2022-08-05T22:42:12.352Z,1.70
2022-08-05T22:44:53.753Z,1.80
2022-08-05T22:47:28.994Z,1.80
2022-08-05T22:50:19.698Z,1.63
2022-08-05T22:52:50.207Z,1.67
2022-08-05T22:55:21.660Z,1.50
2022-08-05T22:57:51.611Z,1.75
2022-08-05T23:00:24.438Z,1.60
2022-08-05T23:02:56.247Z,1.60
2022-08-05T23:05:27.812Z,1.70
2022-08-05T23:07:57.301Z,1.73
2022-08-05T23:10:26.770Z,1.92
2022-08-05T23:12:56.420Z,1.85
2022-08-05T23:15:35.146Z,1.77
2022-08-05T23:18:11.469Z,1.55
2022-08-05T23:20:43.033Z,1.80
2022-08-05T23:23:12.756Z,1.95
2022-08-05T23:25:51.089Z,2.03
2022-08-05T23:28:27.821Z,1.90
2022-08-05T23:31:16.084Z,1.67
2022-08-05T23:34:03.272Z,1.60
2022-08-05T23:36:39.587Z,1.60
2022-08-05T23:39:17.097Z,1.70
2022-08-05T23:41:54.037Z,1.63
2022-08-05T23:44:31.167Z,1.80
2022-08-05T23:47:15.234Z,1.50
2022-08-05T23:49:46.042Z,1.60
2022-08-05T23:52:31.677Z,1.77
2022-08-05T23:55:02.168Z,1.85
2022-08-05T23:57:34.849Z,1.60
